Time;durP1;ratioP1;P1;durP2;ratioP2;P2;SDS_P1;SDS_P2;PMS_P1;PMS_P2;Temp;Humidity;BMP_temperature;BMP_pressure;BME280_temperature;BME280_humidity;BME280_pressure;Samples;Min_cycle;Max_cycle;Signal;HPM_P1;HPM_P2
2020/12/15 00:00:27;;;;;;;243.33;29.57;;;-1.10;99.90;;;;;;4447752;28;661690;-71
2020/12/15 00:03:15;;;;;;;161.20;33.97;;;-1.10;99.90;;;;;;4439368;28;660521;-71
2020/12/15 00:06:02;;;;;;;171.63;28.57;;;-1.10;99.90;;;;;;4453364;28;661256;-70
2020/12/15 00:08:49;;;;;;;201.77;31.80;;;-1.20;99.90;;;;;;4435630;28;661664;-71
2020/12/15 00:11:36;;;;;;;186.40;29.83;;;-1.20;99.90;;;;;;4453926;28;661355;-71
2020/12/15 00:14:24;;;;;;;229.43;32.65;;;-1.20;99.90;;;;;;4442375;28;660616;-69
2020/12/15 00:17:11;;;;;;;124.63;27.55;;;-1.20;99.90;;;;;;4456234;28;662074;-69
2020/12/15 00:19:59;;;;;;;141.87;28.17;;;-1.20;99.90;;;;;;4456133;28;661191;-71
2020/12/15 00:22:46;;;;;;;151.30;28.85;;;-1.20;99.90;;;;;;4443576;28;661787;-71
2020/12/15 00:25:32;;;;;;;123.93;28.33;;;-1.20;99.90;;;;;;4454716;28;660982;-70
2020/12/15 00:28:19;;;;;;;165.07;29.63;;;-1.20;99.90;;;;;;4431152;28;660737;-71
2020/12/15 00:31:07;;;;;;;134.97;29.03;;;-1.10;99.90;;;;;;4450124;28;661995;-71
2020/12/15 00:33:53;;;;;;;213.57;30.50;;;-1.20;99.90;;;;;;4431745;28;660664;-68
2020/12/15 00:36:41;;;;;;;130.13;27.63;;;-1.20;99.90;;;;;;4463616;28;660540;-71
2020/12/15 00:39:29;;;;;;;140.45;27.23;;;-1.10;99.90;;;;;;4439009;28;660762;-68
2020/12/15 00:42:16;;;;;;;200.80;27.35;;;-1.10;99.90;;;;;;4459693;28;660881;-71
2020/12/15 00:45:03;;;;;;;251.27;30.15;;;-1.10;99.90;;;;;;4447587;28;661049;-71
2020/12/15 00:47:51;;;;;;;206.63;27.77;;;-1.20;99.90;;;;;;4439546;28;660591;-71
2020/12/15 00:50:38;;;;;;;164.53;27.30;;;-1.20;99.90;;;;;;4462340;28;660931;-71
2020/12/15 00:53:26;;;;;;;165.00;28.10;;;-1.20;99.90;;;;;;4431112;28;660958;-68
2020/12/15 00:56:13;;;;;;;156.00;27.20;;;-1.20;99.90;;;;;;4451619;28;660624;-71
2020/12/15 00:59:00;;;;;;;183.60;29.53;;;-1.20;99.90;;;;;;4430729;28;661731;-71
2020/12/15 01:01:47;;;;;;;207.97;28.77;;;-1.20;99.90;;;;;;4457142;28;661133;-71
2020/12/15 01:04:34;;;;;;;196.18;31.38;;;-1.20;99.90;;;;;;4439439;28;660686;-68
2020/12/15 01:07:21;;;;;;;219.18;31.50;;;-1.10;99.90;;;;;;4456615;28;660721;-71
2020/12/15 01:10:08;;;;;;;183.95;27.85;;;-1.10;99.90;;;;;;4465195;28;661015;-71
2020/12/15 01:12:55;;;;;;;153.77;29.47;;;-1.10;99.90;;;;;;4439396;28;661601;-72
2020/12/15 01:15:42;;;;;;;119.27;28.33;;;-1.10;99.90;;;;;;4463931;28;660659;-71
2020/12/15 01:18:29;;;;;;;144.80;27.80;;;-1.10;99.90;;;;;;4432639;28;660553;-71
2020/12/15 01:21:16;;;;;;;184.97;28.03;;;-1.10;99.90;;;;;;4452981;28;661665;-71
2020/12/15 01:24:03;;;;;;;151.20;27.23;;;-1.10;99.90;;;;;;4453574;28;660990;-68
2020/12/15 01:26:51;;;;;;;150.30;27.80;;;-1.20;99.90;;;;;;4466503;28;660831;-71
2020/12/15 01:29:38;;;;;;;206.15;30.63;;;-1.20;99.90;;;;;;4437025;28;660627;-68
2020/12/15 01:32:25;;;;;;;139.77;28.87;;;-1.20;99.90;;;;;;4456709;28;661667;-72
2020/12/15 01:35:12;;;;;;;164.13;29.47;;;-1.20;99.90;;;;;;4454700;28;660409;-72
2020/12/15 01:37:59;;;;;;;203.97;30.70;;;-1.20;99.90;;;;;;4433062;28;660808;-71
2020/12/15 01:40:50;;;;;;;193.53;27.73;;;-1.30;99.90;;;;;;4464680;28;661945;-71
2020/12/15 01:43:37;;;;;;;183.30;27.70;;;-1.20;99.90;;;;;;4440415;28;660821;-72
2020/12/15 01:46:25;;;;;;;198.13;29.63;;;-1.30;99.90;;;;;;4432965;28;660470;-71
2020/12/15 01:49:12;;;;;;;246.00;31.50;;;-1.30;99.90;;;;;;4454846;28;661739;-71
2020/12/15 01:51:59;;;;;;;220.75;30.48;;;-1.30;99.90;;;;;;4438288;28;660803;-68
2020/12/15 01:54:46;;;;;;;144.97;24.57;;;-1.40;99.90;;;;;;4459559;28;661877;-71
2020/12/15 01:57:33;;;;;;;299.37;28.87;;;-1.30;99.90;;;;;;4453507;28;660504;-71
2020/12/15 02:00:21;;;;;;;173.60;26.10;;;-1.30;99.90;;;;;;4433593;28;660920;-71
2020/12/15 02:03:08;;;;;;;122.53;24.67;;;-1.30;99.90;;;;;;4450862;28;661024;-72
2020/12/15 02:05:54;;;;;;;116.78;28.67;;;-1.40;99.90;;;;;;4434846;28;660600;-71
2020/12/15 02:08:42;;;;;;;133.87;28.00;;;-1.40;99.90;;;;;;4458451;28;661655;-72
2020/12/15 02:11:29;;;;;;;181.17;29.83;;;-1.30;99.90;;;;;;4429323;28;660829;-70
2020/12/15 02:14:16;;;;;;;198.45;27.48;;;-1.30;99.90;;;;;;4451648;28;661504;-71
2020/12/15 02:17:04;;;;;;;165.60;28.80;;;-1.30;99.90;;;;;;4446996;28;660558;-68
2020/12/15 02:20:00;;;;;;;141.20;26.77;;;-1.30;99.90;;;;;;4462005;28;661757;-71
2020/12/15 02:22:48;;;;;;;159.37;27.13;;;-1.30;99.90;;;;;;4426583;28;660923;-72
2020/12/15 02:25:35;;;;;;;205.53;29.43;;;-1.30;99.90;;;;;;4424465;28;662311;-71
2020/12/15 02:28:22;;;;;;;202.50;28.88;;;-1.40;99.90;;;;;;4452516;28;660184;-71
2020/12/15 02:31:09;;;;;;;184.13;27.53;;;-1.40;99.90;;;;;;4430819;28;660926;-71
2020/12/15 02:33:56;;;;;;;148.80;27.03;;;-1.50;99.90;;;;;;4453752;28;661630;-71
2020/12/15 02:36:43;;;;;;;237.97;29.63;;;-1.50;99.90;;;;;;4445060;28;662307;-69
2020/12/15 02:39:31;;;;;;;209.97;27.10;;;-1.50;99.90;;;;;;4455256;28;661359;-71
2020/12/15 02:42:18;;;;;;;256.47;31.40;;;-1.50;99.90;;;;;;4439769;28;660565;-68
2020/12/15 02:45:05;;;;;;;198.03;30.00;;;-1.50;99.90;;;;;;4458180;28;660634;-71
2020/12/15 02:47:52;;;;;;;207.87;29.80;;;-1.50;99.90;;;;;;4452782;28;660599;-71
2020/12/15 02:50:39;;;;;;;194.40;28.57;;;-1.50;99.90;;;;;;4427059;28;660492;-70
2020/12/15 02:53:26;;;;;;;210.17;30.33;;;-1.60;99.90;;;;;;4457244;28;661840;-71
2020/12/15 02:56:19;;;;;;;165.53;27.83;;;-1.50;99.90;;;;;;4448486;28;660962;-68
2020/12/15 02:59:06;;;;;;;160.70;27.90;;;-1.60;99.90;;;;;;4437897;28;661335;-71
2020/12/15 03:01:53;;;;;;;183.90;29.57;;;-1.50;99.90;;;;;;4447880;28;660540;-68
2020/12/15 03:04:40;;;;;;;172.30;29.87;;;-1.50;99.90;;;;;;4455965;28;661458;-71
2020/12/15 03:07:27;;;;;;;164.67;28.57;;;-1.50;99.90;;;;;;4455818;28;660400;-71
2020/12/15 03:10:14;;;;;;;139.30;29.17;;;-1.50;99.90;;;;;;4433325;28;660819;-72
2020/12/15 03:13:02;;;;;;;162.75;31.38;;;-1.50;99.90;;;;;;4459774;28;661880;-71
2020/12/15 03:15:49;;;;;;;121.60;24.97;;;-1.50;99.90;;;;;;4440738;28;661861;-70
2020/12/15 03:18:36;;;;;;;147.47;25.33;;;-1.50;99.90;;;;;;4454830;28;661910;-71
2020/12/15 03:21:24;;;;;;;155.30;24.47;;;-1.50;99.90;;;;;;4448925;28;661100;-71
2020/12/15 03:24:11;;;;;;;140.20;27.42;;;-1.50;99.90;;;;;;4436631;28;661610;-71
2020/12/15 03:26:57;;;;;;;131.17;28.50;;;-1.60;99.90;;;;;;4446579;28;660600;-71
2020/12/15 03:29:45;;;;;;;158.50;25.92;;;-1.60;99.90;;;;;;4435930;28;662168;-71
2020/12/15 03:32:32;;;;;;;136.17;26.73;;;-1.60;99.90;;;;;;4445915;28;660939;-71
2020/12/15 03:35:19;;;;;;;129.53;25.00;;;-1.60;99.90;;;;;;4433089;28;661346;-71
2020/12/15 03:38:06;;;;;;;99.30;24.30;;;-1.60;99.90;;;;;;4452386;28;661607;-71
2020/12/15 03:40:53;;;;;;;123.60;26.13;;;-1.60;99.90;;;;;;4452502;28;659535;-68
2020/12/15 03:43:40;;;;;;;117.40;26.07;;;-1.60;99.90;;;;;;4466405;28;660950;-71
2020/12/15 03:46:28;;;;;;;193.70;27.00;;;-1.60;99.90;;;;;;4450468;28;660828;-71
2020/12/15 03:49:16;;;;;;;152.37;25.00;;;-1.70;99.90;;;;;;4425510;28;662176;-71
2020/12/15 03:52:03;;;;;;;140.90;27.53;;;-1.70;99.90;;;;;;4448268;28;660767;-71
2020/12/15 03:54:50;;;;;;;123.20;29.87;;;-1.70;99.90;;;;;;4428639;28;660791;-71
2020/12/15 03:57:37;;;;;;;143.48;28.23;;;-1.70;99.90;;;;;;4440500;28;661395;-71
2020/12/15 04:00:23;;;;;;;140.47;27.40;;;-1.80;99.90;;;;;;4429083;28;660808;-68
2020/12/15 04:03:11;;;;;;;128.20;25.70;;;-1.80;99.90;;;;;;4444681;28;660970;-71
2020/12/15 04:05:59;;;;;;;148.55;27.08;;;-1.80;99.90;;;;;;4425498;28;660894;-68
2020/12/15 04:08:45;;;;;;;104.63;25.05;;;-1.80;99.90;;;;;;4451872;28;661656;-71
2020/12/15 04:11:32;;;;;;;131.60;26.33;;;-1.80;99.90;;;;;;4437513;28;660548;-71
2020/12/15 04:14:19;;;;;;;115.70;27.20;;;-1.90;99.90;;;;;;4420112;28;660613;-70
2020/12/15 04:17:08;;;;;;;132.37;26.97;;;-1.90;99.90;;;;;;4444983;28;662145;-71
2020/12/15 04:19:56;;;;;;;123.20;26.43;;;-1.90;99.90;;;;;;4418186;28;660753;-71
2020/12/15 04:22:43;;;;;;;108.40;24.97;;;-1.90;99.90;;;;;;4437158;28;661001;-67
2020/12/15 04:25:30;;;;;;;120.23;27.10;;;-1.90;99.90;;;;;;4446539;28;661257;-71
2020/12/15 04:28:17;;;;;;;118.23;25.20;;;-1.90;99.90;;;;;;4447782;28;660898;-71
2020/12/15 04:31:04;;;;;;;117.10;24.93;;;-1.90;99.90;;;;;;4425643;28;660759;-70
2020/12/15 04:33:51;;;;;;;102.57;25.60;;;-1.90;99.90;;;;;;4449224;28;661971;-71
2020/12/15 04:36:39;;;;;;;89.90;22.50;;;-2.00;99.90;;;;;;4428485;28;661146;-68
2020/12/15 04:39:26;;;;;;;94.53;25.57;;;-2.00;99.90;;;;;;4450510;28;660837;-71
2020/12/15 04:42:14;;;;;;;85.17;22.90;;;-2.00;99.90;;;;;;4426513;28;659726;-67
2020/12/15 04:45:01;;;;;;;88.73;23.53;;;-2.00;99.90;;;;;;4437720;28;660508;-71
2020/12/15 04:47:49;;;;;;;82.27;23.07;;;-2.10;99.90;;;;;;4454409;28;660009;-69
2020/12/15 04:50:36;;;;;;;78.43;21.80;;;-2.20;99.90;;;;;;4457977;28;660533;-71
2020/12/15 04:53:25;;;;;;;70.93;21.67;;;-2.20;99.90;;;;;;4447855;28;659530;-68
2020/12/15 04:56:25;;;;;;;89.23;24.80;;;-2.30;99.90;;;;;;4464937;28;660583;-71
2020/12/15 04:59:12;;;;;;;87.07;24.23;;;-2.30;99.90;;;;;;4431793;28;659895;-71
2020/12/15 05:02:02;;;;;;;82.53;23.73;;;-2.40;99.90;;;;;;4437617;28;659503;-70
2020/12/15 05:04:49;;;;;;;89.77;25.57;;;-2.40;99.90;;;;;;4432169;28;660222;-71
2020/12/15 05:07:39;;;;;;;111.83;29.10;;;-2.50;99.90;;;;;;4466796;28;660608;-71
2020/12/15 05:10:27;;;;;;;100.63;26.30;;;-2.50;99.90;;;;;;4418441;28;661276;-71
2020/12/15 05:13:14;;;;;;;86.63;23.80;;;-2.50;99.90;;;;;;4429399;28;660648;-70
2020/12/15 05:16:01;;;;;;;65.28;20.95;;;-2.50;99.90;;;;;;4470482;28;661312;-71
2020/12/15 05:18:47;;;;;;;89.53;23.77;;;-2.50;99.90;;;;;;4458265;28;659638;-71
2020/12/15 05:21:34;;;;;;;82.73;23.57;;;-2.50;99.90;;;;;;4446577;28;659929;-70
2020/12/15 05:24:22;;;;;;;106.00;27.60;;;-2.50;99.90;;;;;;4457821;28;660450;-71
2020/12/15 05:27:15;;;;;;;100.97;28.33;;;-2.50;99.90;;;;;;4437506;28;660514;-70
2020/12/15 05:30:08;;;;;;;106.50;29.52;;;-2.50;99.90;;;;;;4431580;28;660836;-72
2020/12/15 05:32:56;;;;;;;96.07;27.40;;;-2.50;99.90;;;;;;4437742;28;660774;-71
2020/12/15 05:35:43;;;;;;;87.37;26.17;;;-2.50;99.90;;;;;;4444917;28;659648;-69
2020/12/15 05:38:30;;;;;;;111.93;27.70;;;-2.50;99.90;;;;;;4466686;28;660152;-71
2020/12/15 05:41:17;;;;;;;107.43;27.83;;;-2.60;99.90;;;;;;4459510;28;660580;-71
2020/12/15 05:44:05;;;;;;;111.47;28.47;;;-2.50;99.90;;;;;;4445251;28;660806;-71
2020/12/15 05:46:52;;;;;;;120.70;26.67;;;-2.50;99.90;;;;;;4459788;28;661180;-72
2020/12/15 05:49:40;;;;;;;111.60;26.00;;;-2.50;99.90;;;;;;4445753;28;660759;-71
2020/12/15 05:52:28;;;;;;;118.67;28.50;;;-2.50;99.90;;;;;;4454886;28;660214;-71
2020/12/15 05:55:14;;;;;;;128.00;29.08;;;-2.50;99.90;;;;;;4440414;28;660860;-71
2020/12/15 05:58:02;;;;;;;103.40;27.53;;;-2.50;99.90;;;;;;4457372;28;661472;-71
2020/12/15 06:00:50;;;;;;;182.97;34.90;;;-2.50;99.90;;;;;;4437283;28;660463;-70
2020/12/15 06:03:37;;;;;;;197.20;34.50;;;-2.50;99.90;;;;;;4456795;28;660933;-71
2020/12/15 06:06:24;;;;;;;103.05;24.42;;;-2.60;99.90;;;;;;4445616;28;660854;-71
2020/12/15 06:09:12;;;;;;;88.00;23.60;;;-2.60;99.90;;;;;;4449835;28;662021;-71
2020/12/15 06:11:59;;;;;;;81.23;24.67;;;-2.60;99.90;;;;;;4438210;28;659389;-71
2020/12/15 06:14:46;;;;;;;78.73;23.67;;;-2.70;99.90;;;;;;4451121;28;660746;-71
2020/12/15 06:17:34;;;;;;;75.77;22.60;;;-2.70;99.90;;;;;;4461444;28;659745;-70
2020/12/15 06:20:21;;;;;;;79.13;22.53;;;-2.80;99.90;;;;;;4441150;28;660479;-71
2020/12/15 06:23:09;;;;;;;84.73;24.80;;;-2.70;99.90;;;;;;4464886;28;659706;-69
2020/12/15 06:25:56;;;;;;;105.40;29.20;;;-2.70;99.90;;;;;;4428206;28;661385;-71
2020/12/15 06:28:43;;;;;;;107.37;29.97;;;-2.70;99.90;;;;;;4443985;28;660794;-69
2020/12/15 06:31:30;;;;;;;108.50;28.83;;;-2.70;99.90;;;;;;4461979;28;660526;-71
2020/12/15 06:34:24;;;;;;;116.63;30.00;;;-2.80;99.90;;;;;;4447216;28;660518;-71
2020/12/15 06:37:11;;;;;;;126.67;29.63;;;-2.80;99.90;;;;;;4440747;28;661722;-72
2020/12/15 06:40:00;;;;;;;133.50;30.97;;;-2.80;99.90;;;;;;4431699;28;660794;-68
2020/12/15 06:42:50;;;;;;;159.43;34.77;;;-2.80;99.90;;;;;;4463963;28;661157;-71
2020/12/15 06:45:37;;;;;;;150.80;34.00;;;-2.80;99.90;;;;;;4425578;28;660946;-71
2020/12/15 06:48:24;;;;;;;113.37;27.07;;;-2.70;99.90;;;;;;4442148;28;660405;-70
2020/12/15 06:51:12;;;;;;;92.63;27.57;;;-2.80;99.90;;;;;;4463406;28;662186;-71
2020/12/15 06:54:01;;;;;;;85.23;26.90;;;-2.70;99.90;;;;;;4441900;28;659643;-70
2020/12/15 06:57:07;;;;;;;81.67;24.07;;;-2.70;99.90;;;;;;4462929;28;660159;-71
2020/12/15 06:59:54;;;;;;;61.40;20.80;;;-2.70;99.90;;;;;;4419190;28;659500;-69
2020/12/15 07:02:43;;;;;;;65.90;20.57;;;-2.60;99.90;;;;;;4460476;28;660788;-71
2020/12/15 07:05:31;;;;;;;63.67;22.27;;;-2.70;99.90;;;;;;4432364;28;660589;-71
2020/12/15 07:08:19;;;;;;;71.83;24.97;;;-2.70;99.90;;;;;;4451541;28;659644;-71
2020/12/15 07:11:06;;;;;;;72.77;23.37;;;-2.60;99.90;;;;;;4434682;28;660246;-71
2020/12/15 07:14:03;;;;;;;69.10;23.87;;;-2.60;99.90;;;;;;4456823;27;659612;-68
2020/12/15 07:16:51;;;;;;;69.10;21.07;;;-2.60;99.90;;;;;;4418373;27;660019;-71
2020/12/15 07:19:39;;;;;;;73.20;24.37;;;-2.50;99.90;;;;;;4455661;27;659469;-68
2020/12/15 07:22:26;;;;;;;75.73;25.27;;;-2.40;99.90;;;;;;4471902;27;661061;-69
2020/12/15 07:25:14;;;;;;;83.13;26.75;;;-2.40;99.90;;;;;;4456369;28;660063;-71
2020/12/15 07:28:01;;;;;;;78.63;26.77;;;-2.40;99.90;;;;;;4434585;28;659920;-71
2020/12/15 07:31:22;;;;;;;78.73;27.10;;;-2.30;99.90;;;;;;4459149;28;659621;-67
2020/12/15 07:34:10;;;;;;;89.73;30.00;;;-2.20;99.90;;;;;;4413791;28;660078;-70
2020/12/15 07:36:57;;;;;;;104.80;34.50;;;-2.20;99.90;;;;;;4465151;28;659959;-71
2020/12/15 07:39:44;;;;;;;111.60;35.57;;;-2.20;99.90;;;;;;4445393;28;660988;-71
2020/12/15 07:42:32;;;;;;;110.83;35.07;;;-2.00;99.90;;;;;;4466643;28;662154;-71
2020/12/15 07:45:19;;;;;;;111.93;37.00;;;-2.00;99.90;;;;;;4446893;28;661987;-71
2020/12/15 07:48:06;;;;;;;118.97;35.03;;;-1.90;99.90;;;;;;4469211;27;662111;-71
2020/12/15 07:50:53;;;;;;;118.50;36.90;;;-1.80;99.90;;;;;;4454738;28;660862;-67
2020/12/15 07:53:50;;;;;;;112.70;37.37;;;-1.70;99.90;;;;;;4462460;28;660523;-71
2020/12/15 07:56:37;;;;;;;116.93;36.63;;;-1.50;99.90;;;;;;4436182;27;661530;-71
2020/12/15 07:59:25;;;;;;;104.40;33.55;;;-1.50;99.90;;;;;;4388918;28;660962;-69
2020/12/15 08:02:18;;;;;;;111.13;35.17;;;-1.40;99.90;;;;;;4374652;28;661078;-71
2020/12/15 08:05:10;;;;;;;107.20;33.73;;;-1.40;99.90;;;;;;4413327;28;660949;-71
2020/12/15 08:07:58;;;;;;;93.13;29.95;;;-1.30;99.90;;;;;;4442283;28;661856;-71
2020/12/15 08:10:45;;;;;;;96.27;31.57;;;-1.30;99.90;;;;;;4440417;28;661157;-71
2020/12/15 08:13:32;;;;;;;88.63;32.47;;;-1.20;99.90;;;;;;4463664;28;659662;-70
2020/12/15 08:16:20;;;;;;;92.07;32.07;;;-1.10;99.90;;;;;;4448578;28;659947;-71
2020/12/15 08:19:07;;;;;;;92.17;28.97;;;-1.00;99.90;;;;;;4461292;28;660354;-71
2020/12/15 08:21:55;;;;;;;95.87;29.80;;;-0.80;99.90;;;;;;4437970;27;660789;-71
2020/12/15 08:24:42;;;;;;;91.77;31.50;;;-0.40;99.90;;;;;;4451102;28;660856;-71
2020/12/15 08:27:29;;;;;;;93.43;30.07;;;-0.10;99.90;;;;;;4444015;27;660660;-70
2020/12/15 08:30:17;;;;;;;89.93;29.30;;;0.30;99.90;;;;;;4457759;27;660511;-71
2020/12/15 08:33:05;;;;;;;91.93;31.33;;;0.30;99.90;;;;;;4435357;28;658957;-71
2020/12/15 08:35:52;;;;;;;94.10;30.60;;;0.40;99.90;;;;;;4463862;28;658752;-69
2020/12/15 08:38:44;;;;;;;81.57;29.50;;;0.80;99.90;;;;;;4431162;28;658466;-70
2020/12/15 08:41:31;;;;;;;84.93;30.87;;;1.10;99.90;;;;;;4439899;28;659800;-71
2020/12/15 08:44:18;;;;;;;74.90;28.17;;;1.60;99.90;;;;;;4460583;28;658524;-71
2020/12/15 08:47:05;;;;;;;74.00;29.70;;;2.20;99.90;;;;;;4433163;28;659622;-71
2020/12/15 08:49:55;;;;;;;74.77;29.73;;;2.60;99.90;;;;;;4455589;28;658856;-71
2020/12/15 08:52:43;;;;;;;91.45;35.00;;;2.70;99.90;;;;;;4429051;28;658543;-72
2020/12/15 08:55:30;;;;;;;88.10;34.70;;;3.30;99.90;;;;;;4433041;28;658694;-72
2020/12/15 08:58:18;;;;;;;89.77;35.03;;;3.90;99.90;;;;;;4454930;28;659013;-71
2020/12/15 09:01:05;;;;;;;72.33;29.73;;;4.40;99.90;;;;;;4444341;28;659870;-71
2020/12/15 09:03:52;;;;;;;81.13;30.67;;;4.70;99.90;;;;;;4460598;28;658527;-71
2020/12/15 09:06:40;;;;;;;75.20;30.40;;;5.00;99.90;;;;;;4434386;28;658440;-71
2020/12/15 09:09:30;;;;;;;70.10;29.33;;;5.20;99.90;;;;;;4462073;28;658482;-71
2020/12/15 09:12:17;;;;;;;80.77;33.03;;;5.70;99.90;;;;;;4438422;28;660140;-71
2020/12/15 09:15:04;;;;;;;82.43;33.43;;;5.90;99.90;;;;;;4438954;28;658559;-70
2020/12/15 09:17:51;;;;;;;72.73;31.57;;;6.30;99.90;;;;;;4456777;28;659571;-72
2020/12/15 09:20:38;;;;;;;69.77;31.37;;;6.90;99.90;;;;;;4447628;28;659469;-69
2020/12/15 09:23:28;;;;;;;70.93;31.87;;;7.50;99.90;;;;;;4461647;28;660345;-71
2020/12/15 09:26:15;;;;;;;68.60;31.67;;;8.10;99.90;;;;;;4442147;28;659106;-70
2020/12/15 09:29:07;;;;;;;68.00;32.43;;;8.30;96.90;;;;;;4467226;28;659126;-71
2020/12/15 09:31:54;;;;;;;81.63;37.30;;;8.40;97.50;;;;;;4424247;28;658876;-70
2020/12/15 09:34:41;;;;;;;86.72;40.72;;;9.00;93.60;;;;;;4458796;28;659507;-71
2020/12/15 09:37:29;;;;;;;80.30;40.70;;;8.80;93.60;;;;;;4435510;28;659431;-69
2020/12/15 09:40:17;;;;;;;91.60;41.63;;;9.40;90.40;;;;;;4454226;28;660052;-72
2020/12/15 09:43:05;;;;;;;79.17;35.50;;;9.60;92.00;;;;;;4438400;28;658538;-71
2020/12/15 09:45:52;;;;;;;82.28;35.88;;;10.00;81.40;;;;;;4462314;28;659794;-72
2020/12/15 09:48:39;;;;;;;79.10;35.15;;;10.20;80.70;;;;;;4442016;28;660292;-69
2020/12/15 09:51:26;;;;;;;74.93;36.53;;;10.40;80.80;;;;;;4456961;28;660812;-70
2020/12/15 09:54:13;;;;;;;70.45;33.80;;;10.80;76.00;;;;;;4457919;28;659899;-70
2020/12/15 09:57:01;;;;;;;62.30;29.73;;;10.90;71.00;;;;;;4445170;28;659790;-70
2020/12/15 09:59:47;;;;;;;58.33;28.48;;;11.10;71.80;;;;;;4456062;28;659481;-71
2020/12/15 10:02:35;;;;;;;74.90;33.73;;;11.60;65.90;;;;;;4446356;28;660002;-70
2020/12/15 10:05:22;;;;;;;72.10;33.57;;;11.80;67.40;;;;;;4456615;28;661219;-70
2020/12/15 10:08:09;;;;;;;86.85;39.55;;;12.20;64.20;;;;;;4437422;28;660424;-68
2020/12/15 10:10:56;;;;;;;66.57;32.77;;;12.90;56.90;;;;;;4462021;28;660526;-70
2020/12/15 10:13:43;;;;;;;62.97;30.27;;;12.80;55.80;;;;;;4456589;28;660713;-71
2020/12/15 10:16:30;;;;;;;62.13;28.73;;;12.60;58.50;;;;;;4437403;27;660675;-70
2020/12/15 10:19:17;;;;;;;58.57;27.00;;;12.90;55.00;;;;;;4450908;28;659456;-70
2020/12/15 10:22:04;;;;;;;59.60;28.23;;;12.50;56.80;;;;;;4437432;27;659508;-71
2020/12/15 10:24:51;;;;;;;55.25;26.88;;;12.00;57.80;;;;;;4453922;28;660657;-71
2020/12/15 10:27:39;;;;;;;56.67;25.37;;;12.50;57.40;;;;;;4449628;28;659513;-67
2020/12/15 10:30:26;;;;;;;65.77;32.33;;;13.10;53.90;;;;;;4466083;28;659680;-71
2020/12/15 10:33:14;;;;;;;63.17;30.80;;;12.70;54.60;;;;;;4435686;28;660025;-67
2020/12/15 10:36:01;;;;;;;57.10;26.80;;;12.80;57.70;;;;;;4458196;28;659767;-70
2020/12/15 10:38:49;;;;;;;48.03;23.07;;;12.90;54.40;;;;;;4440961;28;659666;-67
2020/12/15 10:41:39;;;;;;;45.03;22.47;;;13.20;54.90;;;;;;4461401;27;659697;-71
2020/12/15 10:44:26;;;;;;;61.97;28.57;;;13.60;54.60;;;;;;4432462;28;661089;-70
2020/12/15 10:47:15;;;;;;;54.67;26.17;;;13.60;53.20;;;;;;4443119;28;659678;-67
2020/12/15 10:50:02;;;;;;;62.30;29.37;;;14.30;50.50;;;;;;4447127;28;661056;-71
2020/12/15 10:52:49;;;;;;;60.07;26.60;;;14.00;51.60;;;;;;4435267;28;659707;-68
2020/12/15 10:55:36;;;;;;;59.77;29.10;;;13.90;52.30;;;;;;4462483;28;661440;-69
2020/12/15 10:58:23;;;;;;;67.17;33.43;;;14.90;48.80;;;;;;4454052;28;660421;-67
2020/12/15 11:01:11;;;;;;;64.30;31.33;;;14.30;49.40;;;;;;4454006;28;659579;-70
2020/12/15 11:04:00;;;;;;;61.83;29.80;;;14.80;48.10;;;;;;4457714;28;659617;-67
2020/12/15 11:06:47;;;;;;;48.60;23.83;;;14.60;47.80;;;;;;4448626;28;660065;-70
2020/12/15 11:09:55;;;;;;;65.47;32.17;;;13.60;48.50;;;;;;4443207;28;659771;-69
2020/12/15 11:13:01;;;;;;;41.10;20.13;;;13.10;51.30;;;;;;4428721;28;659917;-70
2020/12/15 11:15:49;;;;;;;56.13;24.27;;;12.50;50.20;;;;;;4429846;28;660451;-66
2020/12/15 11:19:25;;;;;;;53.77;25.20;;;12.40;52.90;;;;;;4461651;28;659752;-69
2020/12/15 11:22:13;;;;;;;57.33;26.53;;;12.50;52.30;;;;;;4426994;28;661127;-70
2020/12/15 11:25:00;;;;;;;56.43;27.33;;;12.90;52.10;;;;;;4428709;28;659747;-67
2020/12/15 11:27:47;;;;;;;55.37;25.90;;;13.40;51.70;;;;;;4455453;28;661073;-70
2020/12/15 11:30:34;;;;;;;49.63;23.67;;;14.20;48.90;;;;;;4439066;28;659758;-69
2020/12/15 11:33:21;;;;;;;57.47;25.60;;;14.80;47.90;;;;;;4448848;28;661304;-69
2020/12/15 11:36:08;;;;;;;57.87;27.30;;;14.90;49.10;;;;;;4456200;28;660047;-70
2020/12/15 11:38:56;;;;;;;53.97;27.27;;;15.20;47.10;;;;;;4425249;28;659772;-69
2020/12/15 11:41:46;;;;;;;52.13;27.33;;;15.50;46.80;;;;;;4449360;28;659832;-67
2020/12/15 11:44:33;;;;;;;59.47;27.07;;;15.70;46.30;;;;;;4454032;28;660725;-70
2020/12/15 11:47:21;;;;;;;59.00;27.63;;;15.60;45.40;;;;;;4438379;28;659596;-69
2020/12/15 11:50:09;;;;;;;51.80;23.53;;;15.20;45.10;;;;;;4444478;28;659654;-65
2020/12/15 11:52:56;;;;;;;45.00;21.60;;;13.60;48.00;;;;;;4455893;28;661023;-68
2020/12/15 11:55:44;;;;;;;50.83;23.57;;;13.30;49.80;;;;;;4451779;28;659815;-68
2020/12/15 11:58:31;;;;;;;51.83;23.67;;;13.00;49.00;;;;;;4436813;28;660976;-68
2020/12/15 12:01:18;;;;;;;59.60;25.73;;;11.60;53.20;;;;;;4460873;28;660772;-69
2020/12/15 12:04:05;;;;;;;53.50;24.27;;;11.20;54.70;;;;;;4437069;28;659420;-68
2020/12/15 12:06:52;;;;;;;52.20;24.83;;;10.70;59.50;;;;;;4464076;28;660676;-68
2020/12/15 12:09:39;;;;;;;72.80;33.47;;;10.00;60.60;;;;;;4435408;28;659553;-67
2020/12/15 12:12:27;;;;;;;72.90;31.97;;;9.70;65.10;;;;;;4450398;28;660429;-68
2020/12/15 12:15:14;;;;;;;63.60;29.03;;;8.90;74.00;;;;;;4442681;28;660638;-65
2020/12/15 12:18:01;;;;;;;61.53;28.73;;;8.40;83.50;;;;;;4459757;28;659806;-70
2020/12/15 12:20:48;;;;;;;71.47;30.00;;;8.90;80.90;;;;;;4462964;28;659499;-70
2020/12/15 12:23:35;;;;;;;61.73;29.47;;;9.60;78.20;;;;;;4436876;28;659447;-70
2020/12/15 12:26:22;;;;;;;73.40;33.73;;;10.40;69.40;;;;;;4461159;28;659317;-70
2020/12/15 12:29:10;;;;;;;64.17;32.70;;;11.50;61.40;;;;;;4439685;28;659686;-69
2020/12/15 12:31:57;;;;;;;82.77;38.63;;;12.20;56.70;;;;;;4458202;28;660301;-70
2020/12/15 12:34:45;;;;;;;86.83;39.37;;;13.10;55.50;;;;;;4443326;28;659924;-69
2020/12/15 12:37:32;;;;;;;72.03;33.53;;;14.20;51.50;;;;;;4452786;28;660805;-71
2020/12/15 12:40:19;;;;;;;47.70;23.60;;;14.50;50.70;;;;;;4435424;28;659783;-70
2020/12/15 12:43:06;;;;;;;48.77;21.67;;;15.40;45.90;;;;;;4455851;28;661501;-71
2020/12/15 12:45:54;;;;;;;40.70;20.83;;;15.70;46.20;;;;;;4460840;28;660998;-69
2020/12/15 12:48:41;;;;;;;42.77;20.50;;;16.00;44.70;;;;;;4428198;28;660781;-69
2020/12/15 12:51:29;;;;;;;43.50;22.00;;;16.20;44.10;;;;;;4449023;28;659850;-65
2020/12/15 12:54:16;;;;;;;44.07;22.43;;;15.70;43.10;;;;;;4457496;28;660562;-68
2020/12/15 12:57:04;;;;;;;44.27;21.60;;;14.50;44.00;;;;;;4447600;28;659623;-65
2020/12/15 12:59:51;;;;;;;52.55;22.27;;;13.50;46.60;;;;;;4458058;28;660008;-68
2020/12/15 13:02:41;;;;;;;45.17;22.07;;;12.60;48.30;;;;;;4457675;28;659505;-68
2020/12/15 13:05:29;;;;;;;46.37;22.60;;;11.80;50.60;;;;;;4420819;28;659708;-65
2020/12/15 13:08:16;;;;;;;50.30;23.20;;;11.10;52.10;;;;;;4459530;28;660809;-68
2020/12/15 13:11:08;;;;;;;55.33;25.17;;;10.10;56.80;;;;;;4437152;28;659747;-65
2020/12/15 13:13:55;;;;;;;51.10;24.87;;;9.40;61.50;;;;;;4373641;28;660671;-68
2020/12/15 13:16:42;;;;;;;57.20;26.43;;;8.80;66.60;;;;;;4395740;28;659305;-67
2020/12/15 13:19:30;;;;;;;78.57;34.27;;;8.30;75.20;;;;;;4377746;28;658634;-67
2020/12/15 13:22:18;;;;;;;70.77;33.37;;;8.30;75.60;;;;;;4396786;28;657946;-67
2020/12/15 13:25:11;;;;;;;71.80;32.87;;;7.90;79.40;;;;;;4362580;28;659912;-67
2020/12/15 13:27:59;;;;;;;78.63;34.43;;;7.40;83.20;;;;;;4365297;28;658768;-66
2020/12/15 13:30:46;;;;;;;73.10;31.83;;;7.00;82.90;;;;;;4396611;28;658690;-69
2020/12/15 13:33:33;;;;;;;86.43;36.97;;;6.70;83.80;;;;;;4395217;28;658285;-69
2020/12/15 13:36:21;;;;;;;78.57;34.33;;;6.30;86.10;;;;;;4376714;28;658806;-69
2020/12/15 13:39:09;;;;;;;84.13;34.70;;;6.10;85.20;;;;;;4388471;28;658693;-66
2020/12/15 13:41:56;;;;;;;75.43;30.63;;;6.30;86.70;;;;;;4392107;28;659990;-69
2020/12/15 13:44:43;;;;;;;75.37;32.37;;;6.80;83.60;;;;;;4393440;28;659867;-69
2020/12/15 13:47:30;;;;;;;81.20;33.30;;;7.60;77.40;;;;;;4367185;28;660493;-68
2020/12/15 13:50:18;;;;;;;60.00;26.37;;;8.40;70.20;;;;;;4464432;27;658467;-71
2020/12/15 13:53:06;;;;;;;60.43;25.53;;;8.60;69.80;;;;;;4444558;28;659341;-70
2020/12/15 13:55:54;;;;;;;57.90;23.60;;;8.20;70.10;;;;;;4442469;28;660004;-67
2020/12/15 13:58:41;;;;;;;59.78;24.17;;;7.70;72.20;;;;;;4456559;28;658797;-69